Aérodrome :
LOGIN :

S'inscrire | Disclaimer

   EN    FR    IT 

 










Légende :    VFR   VFR Marginal   IFR   IFR Intensif   IFR Très Intensif
Visi : 
Plafond : 
>= 8 km
>= 3000ft
5 à 8 km
1000 à 3000 ft
1500m à 5 km
500 à 1000 ft
800 à 1500m
200 à 500 ft
< 800m
< 200 ft
Symboles :   Orages  Brouillard  Fortes neiges  Fortes précipitations  Vent > 20 kt
SIGMETs :   Divers  Orages  Givrage  Turbulence  Onde Orograph.  Cendres Volcan.







- Altitude de l'aérodrome : 7 ft
- Code IATA : POW


LJPZ - Portoroz

DERNIER METAR :
  • 181800Z 07008KT 030V100 9999 BKN065 OVC080 06/M02 Q1020

METARs EXPIRÉS :
  • 181730Z 06010KT 020V100 9999 BKN065 OVC080 06/M02 Q1020
  • 181700Z 06010KT 030V100 9999 FEW050 OVC065 06/M02 Q1020
  • 181630Z 06010KT 020V100 9999 OVC050 06/M02 Q1020
  • 181600Z 06008KT 030V100 9999 OVC050 06/M02 Q1020
  • 181530Z 06008KT 030V100 9999 OVC050 06/M01 Q1020

TAF TAF LJPZ
Valide du 18 à 18h jusqu'au 19 à 03h UTC


181700Z 1818/1903 06010G25KT 9999 SCT040 OVC060
Pas de NOTAMs connus pour ce terrain.
1 SIGMET publié pour la FIR Ljubljana (LJLA) :
 
Turbulence forte
LJLA SIGMET 3 VALID 181600/182000 LJLJ
LJLA LJUBLJANA FIR SEV TURB FCST SW OF LINE N4532 E01438 - N4558 E01338 SFC/6000FT STNR NC=



MET'MAP, la Météo Aéronautique d'un coup d'oeil ! - Copyright ORBIFLY Décembre 2007 - Disclaimer

ORBIFLY MET'MAP TEAM :

Programmation & Développement : Alexandra Zaïnal
Conception & Développement : Baudouin d'Aumeries
Co-Programmation & Développement : Marc-Olivier Méhu
Soutien technique & logistique : Manuel Goepfert

Contact : metmap@orbifly.com




SOURCES & CREDITS :

   NOAA